sensor_id;sensor_type;location;lat;lon;timestamp;pressure;altitude;pressure_sealevel;temperature;humidity
76460;BME280;65299;46.084;18.762;2023-04-25T00:00:58;99645.97;;;11.96;81.30
76460;BME280;65299;46.084;18.762;2023-04-25T00:03:58;99631.31;;;11.80;80.71
76460;BME280;65299;46.084;18.762;2023-04-25T00:06:59;99637.63;;;11.84;81.29
76460;BME280;65299;46.084;18.762;2023-04-25T00:10:02;99629.50;;;11.76;80.26
76460;BME280;65299;46.084;18.762;2023-04-25T00:13:02;99638.31;;;11.71;80.85
76460;BME280;65299;46.084;18.762;2023-04-25T00:16:03;99637.56;;;11.71;80.81
76460;BME280;65299;46.084;18.762;2023-04-25T00:19:04;99640.13;;;11.76;80.72
76460;BME280;65299;46.084;18.762;2023-04-25T00:22:05;99635.94;;;11.70;81.11
76460;BME280;65299;46.084;18.762;2023-04-25T00:25:06;99631.25;;;11.61;80.98
76460;BME280;65299;46.084;18.762;2023-04-25T00:28:06;99642.69;;;11.62;81.13
76460;BME280;65299;46.084;18.762;2023-04-25T00:31:07;99651.13;;;11.88;81.01
76460;BME280;65299;46.084;18.762;2023-04-25T00:34:07;99641.56;;;11.68;81.16
76460;BME280;65299;46.084;18.762;2023-04-25T00:37:08;99645.66;;;11.55;81.70
76460;BME280;65299;46.084;18.762;2023-04-25T00:40:09;99649.75;;;11.72;81.00
76460;BME280;65299;46.084;18.762;2023-04-25T00:43:10;99651.78;;;11.56;81.10
76460;BME280;65299;46.084;18.762;2023-04-25T00:46:10;99651.34;;;11.73;80.75
76460;BME280;65299;46.084;18.762;2023-04-25T00:49:11;99649.28;;;11.64;80.44
76460;BME280;65299;46.084;18.762;2023-04-25T00:52:15;99655.06;;;11.72;80.89
76460;BME280;65299;46.084;18.762;2023-04-25T00:55:16;99649.06;;;11.61;80.79
76460;BME280;65299;46.084;18.762;2023-04-25T00:58:20;99655.38;;;11.70;80.58
76460;BME280;65299;46.084;18.762;2023-04-25T01:01:20;99657.81;;;11.61;80.89
76460;BME280;65299;46.084;18.762;2023-04-25T01:04:21;99651.63;;;11.47;80.75
76460;BME280;65299;46.084;18.762;2023-04-25T01:07:22;99663.19;;;11.56;80.83
76460;BME280;65299;46.084;18.762;2023-04-25T01:10:22;99654.81;;;11.44;81.38
76460;BME280;65299;46.084;18.762;2023-04-25T01:13:23;99660.03;;;11.54;81.48
76460;BME280;65299;46.084;18.762;2023-04-25T01:16:23;99659.97;;;11.59;81.31
76460;BME280;65299;46.084;18.762;2023-04-25T01:19:24;99657.44;;;11.49;81.20
76460;BME280;65299;46.084;18.762;2023-04-25T01:22:25;99657.31;;;11.59;81.44
76460;BME280;65299;46.084;18.762;2023-04-25T01:25:25;99656.94;;;11.47;81.60
76460;BME280;65299;46.084;18.762;2023-04-25T01:28:26;99668.09;;;11.44;81.60
76460;BME280;65299;46.084;18.762;2023-04-25T01:31:27;99667.34;;;11.44;81.57
76460;BME280;65299;46.084;18.762;2023-04-25T01:34:28;99671.22;;;11.51;81.11
76460;BME280;65299;46.084;18.762;2023-04-25T01:37:29;99678.47;;;11.46;80.94
76460;BME280;65299;46.084;18.762;2023-04-25T01:40:30;99679.25;;;11.46;80.69
76460;BME280;65299;46.084;18.762;2023-04-25T01:43:31;99674.03;;;11.36;80.63
76460;BME280;65299;46.084;18.762;2023-04-25T01:46:33;99671.78;;;11.25;80.67
76460;BME280;65299;46.084;18.762;2023-04-25T01:49:33;99679.72;;;11.30;81.02
76460;BME280;65299;46.084;18.762;2023-04-25T01:52:34;99675.19;;;11.30;81.18
76460;BME280;65299;46.084;18.762;2023-04-25T01:55:34;99675.34;;;11.15;81.63
76460;BME280;65299;46.084;18.762;2023-04-25T01:58:35;99676.91;;;11.16;81.63
76460;BME280;65299;46.084;18.762;2023-04-25T02:01:35;99676.47;;;11.09;80.98
76460;BME280;65299;46.084;18.762;2023-04-25T02:04:36;99675.50;;;11.00;81.09
76460;BME280;65299;46.084;18.762;2023-04-25T02:07:36;99679.13;;;11.09;81.11
76460;BME280;65299;46.084;18.762;2023-04-25T02:10:37;99670.41;;;11.04;80.90
76460;BME280;65299;46.084;18.762;2023-04-25T02:13:38;99669.94;;;10.97;81.05
76460;BME280;65299;46.084;18.762;2023-04-25T02:16:38;99675.81;;;10.94;80.92
76460;BME280;65299;46.084;18.762;2023-04-25T02:19:39;99673.75;;;11.14;80.41
76460;BME280;65299;46.084;18.762;2023-04-25T02:22:39;99670.97;;;11.01;80.11
76460;BME280;65299;46.084;18.762;2023-04-25T02:25:40;99671.09;;;11.14;80.16
76460;BME280;65299;46.084;18.762;2023-04-25T02:28:40;99669.13;;;11.25;80.12
76460;BME280;65299;46.084;18.762;2023-04-25T02:31:41;99667.00;;;11.27;78.92
76460;BME280;65299;46.084;18.762;2023-04-25T02:34:41;99664.28;;;11.32;79.02
76460;BME280;65299;46.084;18.762;2023-04-25T02:37:42;99663.72;;;11.11;77.66
76460;BME280;65299;46.084;18.762;2023-04-25T02:40:42;99666.38;;;11.11;78.16
76460;BME280;65299;46.084;18.762;2023-04-25T02:43:43;99667.38;;;11.15;77.88
76460;BME280;65299;46.084;18.762;2023-04-25T02:46:43;99656.69;;;11.20;77.67
76460;BME280;65299;46.084;18.762;2023-04-25T02:49:44;99653.78;;;11.22;77.87
76460;BME280;65299;46.084;18.762;2023-04-25T02:52:45;99663.63;;;11.16;76.90
76460;BME280;65299;46.084;18.762;2023-04-25T02:55:46;99666.47;;;11.25;77.64
76460;BME280;65299;46.084;18.762;2023-04-25T02:58:46;99659.41;;;11.15;76.92
76460;BME280;65299;46.084;18.762;2023-04-25T03:01:46;99662.06;;;11.15;76.38
76460;BME280;65299;46.084;18.762;2023-04-25T03:04:47;99658.00;;;11.23;76.58
76460;BME280;65299;46.084;18.762;2023-04-25T03:07:48;99657.38;;;11.31;76.29
76460;BME280;65299;46.084;18.762;2023-04-25T03:10:48;99659.03;;;11.27;76.38
76460;BME280;65299;46.084;18.762;2023-04-25T03:13:50;99665.56;;;11.34;75.92
76460;BME280;65299;46.084;18.762;2023-04-25T03:16:50;99664.03;;;11.28;75.86
76460;BME280;65299;46.084;18.762;2023-04-25T03:19:51;99663.53;;;11.26;75.95
76460;BME280;65299;46.084;18.762;2023-04-25T03:22:51;99666.75;;;11.23;75.08
76460;BME280;65299;46.084;18.762;2023-04-25T03:25:51;99663.78;;;11.30;75.11
76460;BME280;65299;46.084;18.762;2023-04-25T03:28:52;99671.25;;;11.28;74.92
76460;BME280;65299;46.084;18.762;2023-04-25T03:31:52;99667.50;;;11.29;75.03
76460;BME280;65299;46.084;18.762;2023-04-25T03:34:53;99673.03;;;11.32;74.45
76460;BME280;65299;46.084;18.762;2023-04-25T03:37:53;99675.03;;;11.22;73.79
76460;BME280;65299;46.084;18.762;2023-04-25T03:40:53;99674.00;;;11.41;73.68
76460;BME280;65299;46.084;18.762;2023-04-25T03:43:55;99668.34;;;11.24;73.53
76460;BME280;65299;46.084;18.762;2023-04-25T03:46:55;99674.94;;;11.50;72.49
76460;BME280;65299;46.084;18.762;2023-04-25T03:49:56;99677.00;;;11.35;72.38
76460;BME280;65299;46.084;18.762;2023-04-25T03:52:56;99686.09;;;11.52;72.46
76460;BME280;65299;46.084;18.762;2023-04-25T03:55:57;99681.78;;;11.56;72.05
76460;BME280;65299;46.084;18.762;2023-04-25T03:58:57;99686.59;;;11.54;71.16
76460;BME280;65299;46.084;18.762;2023-04-25T04:01:57;99681.22;;;11.59;70.93
76460;BME280;65299;46.084;18.762;2023-04-25T04:04:58;99685.25;;;11.57;70.82
76460;BME280;65299;46.084;18.762;2023-04-25T04:07:58;99682.38;;;11.53;71.29
76460;BME280;65299;46.084;18.762;2023-04-25T04:10:59;99679.94;;;11.33;70.70
76460;BME280;65299;46.084;18.762;2023-04-25T04:13:59;99689.72;;;11.38;70.62
76460;BME280;65299;46.084;18.762;2023-04-25T04:17:00;99692.09;;;11.39;70.43
76460;BME280;65299;46.084;18.762;2023-04-25T04:20:00;99689.31;;;11.49;69.32
76460;BME280;65299;46.084;18.762;2023-04-25T04:23:01;99695.66;;;11.53;69.79
76460;BME280;65299;46.084;18.762;2023-04-25T04:26:01;99708.22;;;11.48;69.33
76460;BME280;65299;46.084;18.762;2023-04-25T04:29:02;99704.34;;;11.35;69.14
76460;BME280;65299;46.084;18.762;2023-04-25T04:32:02;99705.81;;;11.46;69.89
76460;BME280;65299;46.084;18.762;2023-04-25T04:35:03;99709.56;;;11.45;68.78
76460;BME280;65299;46.084;18.762;2023-04-25T04:38:04;99716.00;;;11.39;69.13
76460;BME280;65299;46.084;18.762;2023-04-25T04:41:04;99711.41;;;11.45;69.23
76460;BME280;65299;46.084;18.762;2023-04-25T04:44:05;99715.38;;;11.47;69.55
76460;BME280;65299;46.084;18.762;2023-04-25T04:47:06;99713.94;;;11.60;69.17
76460;BME280;65299;46.084;18.762;2023-04-25T04:50:08;99715.22;;;11.62;68.45
76460;BME280;65299;46.084;18.762;2023-04-25T04:53:09;99733.13;;;11.81;68.56
76460;BME280;65299;46.084;18.762;2023-04-25T04:56:10;99728.44;;;11.73;68.45
76460;BME280;65299;46.084;18.762;2023-04-25T04:59:10;99727.63;;;11.72;68.50
76460;BME280;65299;46.084;18.762;2023-04-25T05:02:10;99720.47;;;11.73;68.08
76460;BME280;65299;46.084;18.762;2023-04-25T05:05:11;99730.06;;;11.69;68.31
76460;BME280;65299;46.084;18.762;2023-04-25T05:08:11;99728.81;;;11.85;68.74
76460;BME280;65299;46.084;18.762;2023-04-25T05:11:12;99730.50;;;11.76;68.20
76460;BME280;65299;46.084;18.762;2023-04-25T05:14:12;99735.50;;;11.82;67.69
76460;BME280;65299;46.084;18.762;2023-04-25T05:17:13;99735.94;;;11.89;67.29
76460;BME280;65299;46.084;18.762;2023-04-25T05:20:13;99733.56;;;11.88;67.49
76460;BME280;65299;46.084;18.762;2023-04-25T05:23:14;99743.06;;;11.94;67.89
76460;BME280;65299;46.084;18.762;2023-04-25T05:26:14;99746.09;;;12.06;66.89
76460;BME280;65299;46.084;18.762;2023-04-25T05:29:15;99744.06;;;11.98;66.42
76460;BME280;65299;46.084;18.762;2023-04-25T05:32:15;99743.84;;;11.94;67.41
76460;BME280;65299;46.084;18.762;2023-04-25T05:35:16;99744.66;;;11.95;66.94
76460;BME280;65299;46.084;18.762;2023-04-25T05:38:16;99751.41;;;12.06;66.16
76460;BME280;65299;46.084;18.762;2023-04-25T05:41:16;99747.91;;;12.10;65.96
76460;BME280;65299;46.084;18.762;2023-04-25T05:44:17;99754.81;;;12.11;65.83
76460;BME280;65299;46.084;18.762;2023-04-25T05:47:17;99756.59;;;12.16;65.39
76460;BME280;65299;46.084;18.762;2023-04-25T05:50:18;99753.81;;;12.26;65.17
76460;BME280;65299;46.084;18.762;2023-04-25T05:53:19;99753.31;;;12.42;64.83
76460;BME280;65299;46.084;18.762;2023-04-25T05:56:19;99763.97;;;12.61;63.42
76460;BME280;65299;46.084;18.762;2023-04-25T05:59:20;99762.97;;;12.57;63.60
76460;BME280;65299;46.084;18.762;2023-04-25T06:02:21;99762.59;;;12.64;64.14
76460;BME280;65299;46.084;18.762;2023-04-25T06:05:21;99766.31;;;12.81;64.59
76460;BME280;65299;46.084;18.762;2023-04-25T06:08:22;99761.94;;;12.90;62.97
76460;BME280;65299;46.084;18.762;2023-04-25T06:11:22;99762.66;;;12.77;62.01
76460;BME280;65299;46.084;18.762;2023-04-25T06:14:22;99776.56;;;12.74;61.28
76460;BME280;65299;46.084;18.762;2023-04-25T06:17:23;99779.63;;;12.81;61.31
76460;BME280;65299;46.084;18.762;2023-04-25T06:20:24;99776.06;;;12.72;61.04
76460;BME280;65299;46.084;18.762;2023-04-25T06:23:24;99777.31;;;12.93;61.24
76460;BME280;65299;46.084;18.762;2023-04-25T06:26:25;99778.13;;;12.75;61.65
76460;BME280;65299;46.084;18.762;2023-04-25T06:29:25;99781.78;;;12.98;61.57
76460;BME280;65299;46.084;18.762;2023-04-25T06:32:26;99784.75;;;12.96;61.37
76460;BME280;65299;46.084;18.762;2023-04-25T06:35:27;99774.84;;;13.15;60.65
76460;BME280;65299;46.084;18.762;2023-04-25T06:38:28;99770.56;;;13.33;61.74
76460;BME280;65299;46.084;18.762;2023-04-25T06:41:28;99769.97;;;13.22;60.48
76460;BME280;65299;46.084;18.762;2023-04-25T06:44:29;99772.09;;;13.53;59.41
76460;BME280;65299;46.084;18.762;2023-04-25T06:47:30;99774.53;;;13.36;60.76
76460;BME280;65299;46.084;18.762;2023-04-25T06:50:30;99780.41;;;13.19;58.49
76460;BME280;65299;46.084;18.762;2023-04-25T06:53:31;99777.72;;;13.65;59.28
76460;BME280;65299;46.084;18.762;2023-04-25T06:56:31;99774.00;;;13.20;59.10
76460;BME280;65299;46.084;18.762;2023-04-25T06:59:31;99773.56;;;13.45;59.13
76460;BME280;65299;46.084;18.762;2023-04-25T07:02:32;99769.34;;;13.25;58.16
76460;BME280;65299;46.084;18.762;2023-04-25T07:05:33;99765.75;;;13.49;58.74
76460;BME280;65299;46.084;18.762;2023-04-25T07:08:33;99773.13;;;13.24;58.57
76460;BME280;65299;46.084;18.762;2023-04-25T07:11:34;99771.00;;;13.54;58.42
76460;BME280;65299;46.084;18.762;2023-04-25T07:14:34;99765.50;;;13.64;59.17
76460;BME280;65299;46.084;18.762;2023-04-25T07:17:35;99765.09;;;13.84;58.67
76460;BME280;65299;46.084;18.762;2023-04-25T07:20:35;99776.72;;;13.61;59.15
76460;BME280;65299;46.084;18.762;2023-04-25T07:23:36;99772.81;;;13.85;58.16
76460;BME280;65299;46.084;18.762;2023-04-25T07:26:37;99769.03;;;13.73;58.34
76460;BME280;65299;46.084;18.762;2023-04-25T07:29:37;99768.66;;;14.06;58.17
76460;BME280;65299;46.084;18.762;2023-04-25T07:32:38;99761.13;;;13.95;57.22
76460;BME280;65299;46.084;18.762;2023-04-25T07:35:39;99764.13;;;13.80;58.24
76460;BME280;65299;46.084;18.762;2023-04-25T07:38:39;99763.91;;;13.63;57.95
76460;BME280;65299;46.084;18.762;2023-04-25T07:41:40;99768.75;;;14.29;56.21
76460;BME280;65299;46.084;18.762;2023-04-25T07:44:40;99769.75;;;14.19;57.55
76460;BME280;65299;46.084;18.762;2023-04-25T07:47:42;99762.53;;;14.33;57.26
76460;BME280;65299;46.084;18.762;2023-04-25T07:50:42;99766.44;;;14.49;55.07
76460;BME280;65299;46.084;18.762;2023-04-25T07:53:43;99755.19;;;14.39;54.29
76460;BME280;65299;46.084;18.762;2023-04-25T07:56:43;99764.47;;;14.77;55.57
76460;BME280;65299;46.084;18.762;2023-04-25T07:59:44;99762.94;;;14.84;54.84
76460;BME280;65299;46.084;18.762;2023-04-25T08:02:44;99751.00;;;14.46;53.20
76460;BME280;65299;46.084;18.762;2023-04-25T08:05:45;99758.22;;;14.81;54.64
76460;BME280;65299;46.084;18.762;2023-04-25T08:08:46;99761.13;;;14.71;54.43
76460;BME280;65299;46.084;18.762;2023-04-25T08:11:46;99754.88;;;14.76;54.28
76460;BME280;65299;46.084;18.762;2023-04-25T08:14:47;99757.06;;;14.96;53.37
76460;BME280;65299;46.084;18.762;2023-04-25T08:17:47;99756.88;;;14.92;53.34
76460;BME280;65299;46.084;18.762;2023-04-25T08:20:48;99754.69;;;15.17;52.76
76460;BME280;65299;46.084;18.762;2023-04-25T08:23:48;99757.06;;;14.96;52.98
76460;BME280;65299;46.084;18.762;2023-04-25T08:26:49;99759.66;;;14.65;53.28
76460;BME280;65299;46.084;18.762;2023-04-25T08:29:49;99757.34;;;14.94;52.89
76460;BME280;65299;46.084;18.762;2023-04-25T08:32:51;99762.75;;;14.81;53.42
76460;BME280;65299;46.084;18.762;2023-04-25T08:35:51;99760.25;;;14.62;54.29
76460;BME280;65299;46.084;18.762;2023-04-25T08:38:52;99756.50;;;14.63;53.67
76460;BME280;65299;46.084;18.762;2023-04-25T08:41:52;99763.56;;;14.81;54.18
76460;BME280;65299;46.084;18.762;2023-04-25T08:44:53;99759.06;;;14.90;53.01
76460;BME280;65299;46.084;18.762;2023-04-25T08:47:54;99764.09;;;15.14;53.58
76460;BME280;65299;46.084;18.762;2023-04-25T08:50:57;99761.47;;;15.45;53.91
76460;BME280;65299;46.084;18.762;2023-04-25T08:54:09;99759.63;;;15.54;51.67
76460;BME280;65299;46.084;18.762;2023-04-25T08:57:11;99765.00;;;15.62;53.66
76460;BME280;65299;46.084;18.762;2023-04-25T09:00:12;99761.63;;;15.79;52.35
76460;BME280;65299;46.084;18.762;2023-04-25T09:03:13;99758.97;;;15.88;51.71
76460;BME280;65299;46.084;18.762;2023-04-25T09:06:14;99748.00;;;16.06;50.49
76460;BME280;65299;46.084;18.762;2023-04-25T09:09:16;99735.75;;;15.57;50.61
76460;BME280;65299;46.084;18.762;2023-04-25T09:12:18;99750.22;;;16.13;51.92
76460;BME280;65299;46.084;18.762;2023-04-25T09:15:20;99743.00;;;15.65;50.25
76460;BME280;65299;46.084;18.762;2023-04-25T09:18:27;99756.63;;;15.95;48.58
76460;BME280;65299;46.084;18.762;2023-04-25T09:21:27;99749.59;;;15.59;49.73
76460;BME280;65299;46.084;18.762;2023-04-25T09:24:37;99746.75;;;16.12;50.91
76460;BME280;65299;46.084;18.762;2023-04-25T09:27:53;99749.63;;;15.76;51.38
76460;BME280;65299;46.084;18.762;2023-04-25T09:30:58;99758.25;;;16.21;51.46
76460;BME280;65299;46.084;18.762;2023-04-25T09:34:10;99758.25;;;16.21;49.51
76460;BME280;65299;46.084;18.762;2023-04-25T09:37:26;99749.47;;;16.46;47.37
76460;BME280;65299;46.084;18.762;2023-04-25T09:40:27;99760.41;;;16.67;49.14
76460;BME280;65299;46.084;18.762;2023-04-25T09:43:30;99764.97;;;16.84;46.87
76460;BME280;65299;46.084;18.762;2023-04-25T09:46:34;99768.91;;;16.78;46.64
76460;BME280;65299;46.084;18.762;2023-04-25T09:49:41;99761.31;;;17.05;46.57
76460;BME280;65299;46.084;18.762;2023-04-25T09:52:43;99755.81;;;16.50;46.14
76460;BME280;65299;46.084;18.762;2023-04-25T09:55:44;99764.34;;;16.61;47.85
76460;BME280;65299;46.084;18.762;2023-04-25T09:58:46;99754.47;;;17.25;47.12
76460;BME280;65299;46.084;18.762;2023-04-25T10:01:48;99763.22;;;16.71;44.42
76460;BME280;65299;46.084;18.762;2023-04-25T10:04:50;99759.25;;;16.42;45.54
76460;BME280;65299;46.084;18.762;2023-04-25T10:07:53;99759.38;;;17.14;46.91
76460;BME280;65299;46.084;18.762;2023-04-25T10:10:53;99768.00;;;17.37;45.50
76460;BME280;65299;46.084;18.762;2023-04-25T10:13:54;99758.41;;;17.82;41.72
76460;BME280;65299;46.084;18.762;2023-04-25T10:16:57;99757.06;;;16.96;43.81
76460;BME280;65299;46.084;18.762;2023-04-25T10:20:00;99765.22;;;17.25;45.71
76460;BME280;65299;46.084;18.762;2023-04-25T10:23:13;99756.69;;;17.14;43.84
76460;BME280;65299;46.084;18.762;2023-04-25T10:26:14;99757.13;;;17.33;43.50
76460;BME280;65299;46.084;18.762;2023-04-25T10:29:22;99758.72;;;17.34;44.36
76460;BME280;65299;46.084;18.762;2023-04-25T10:32:23;99761.69;;;17.50;45.41
76460;BME280;65299;46.084;18.762;2023-04-25T10:35:28;99752.56;;;17.80;44.46
76460;BME280;65299;46.084;18.762;2023-04-25T10:38:30;99748.50;;;17.74;42.29
76460;BME280;65299;46.084;18.762;2023-04-25T10:41:31;99760.50;;;17.22;41.42
76460;BME280;65299;46.084;18.762;2023-04-25T10:44:31;99750.69;;;17.81;41.72
76460;BME280;65299;46.084;18.762;2023-04-25T10:47:36;99751.38;;;17.98;40.35
76460;BME280;65299;46.084;18.762;2023-04-25T10:50:38;99737.06;;;17.48;41.24
76460;BME280;65299;46.084;18.762;2023-04-25T10:53:39;99744.88;;;17.70;41.93
76460;BME280;65299;46.084;18.762;2023-04-25T10:56:41;99760.19;;;18.07;42.24
76460;BME280;65299;46.084;18.762;2023-04-25T10:59:44;99754.16;;;18.10;42.60
76460;BME280;65299;46.084;18.762;2023-04-25T11:02:51;99749.06;;;18.17;41.01
76460;BME280;65299;46.084;18.762;2023-04-25T11:05:53;99742.81;;;18.05;40.04
76460;BME280;65299;46.084;18.762;2023-04-25T11:08:54;99742.06;;;18.87;38.95
76460;BME280;65299;46.084;18.762;2023-04-25T11:11:56;99747.22;;;17.80;40.71
76460;BME280;65299;46.084;18.762;2023-04-25T11:15:06;99748.69;;;17.06;43.00
76460;BME280;65299;46.084;18.762;2023-04-25T11:18:07;99740.25;;;17.33;40.71
76460;BME280;65299;46.084;18.762;2023-04-25T11:21:07;99736.50;;;17.72;41.18
76460;BME280;65299;46.084;18.762;2023-04-25T11:24:08;99748.47;;;17.83;39.52
76460;BME280;65299;46.084;18.762;2023-04-25T11:27:08;99746.22;;;17.56;41.79
76460;BME280;65299;46.084;18.762;2023-04-25T11:30:10;99739.22;;;17.08;43.15
76460;BME280;65299;46.084;18.762;2023-04-25T11:33:11;99746.44;;;17.25;42.27
76460;BME280;65299;46.084;18.762;2023-04-25T11:36:11;99746.66;;;17.66;41.08
76460;BME280;65299;46.084;18.762;2023-04-25T11:39:12;99741.47;;;18.19;40.84
76460;BME280;65299;46.084;18.762;2023-04-25T11:42:12;99743.81;;;17.63;40.83
76460;BME280;65299;46.084;18.762;2023-04-25T11:45:14;99741.44;;;17.99;39.49
76460;BME280;65299;46.084;18.762;2023-04-25T11:48:14;99734.81;;;17.96;40.63
76460;BME280;65299;46.084;18.762;2023-04-25T11:51:15;99741.63;;;18.14;41.95
76460;BME280;65299;46.084;18.762;2023-04-25T11:54:16;99744.88;;;18.29;40.79
76460;BME280;65299;46.084;18.762;2023-04-25T11:57:19;99732.28;;;19.03;41.46
76460;BME280;65299;46.084;18.762;2023-04-25T12:00:21;99733.63;;;19.09;39.28
76460;BME280;65299;46.084;18.762;2023-04-25T12:03:21;99728.19;;;18.64;39.57
76460;BME280;65299;46.084;18.762;2023-04-25T12:06:29;99719.19;;;18.40;40.30
76460;BME280;65299;46.084;18.762;2023-04-25T12:09:31;99729.09;;;17.98;39.54
76460;BME280;65299;46.084;18.762;2023-04-25T12:12:33;99726.56;;;17.72;37.58
76460;BME280;65299;46.084;18.762;2023-04-25T12:15:33;99724.59;;;17.52;38.76
76460;BME280;65299;46.084;18.762;2023-04-25T12:18:35;99717.81;;;17.55;39.96
76460;BME280;65299;46.084;18.762;2023-04-25T12:21:36;99722.81;;;17.10;42.24
76460;BME280;65299;46.084;18.762;2023-04-25T12:24:36;99719.16;;;17.23;41.42
76460;BME280;65299;46.084;18.762;2023-04-25T12:27:37;99716.66;;;17.93;38.12
76460;BME280;65299;46.084;18.762;2023-04-25T12:31:03;99714.38;;;18.54;36.53
76460;BME280;65299;46.084;18.762;2023-04-25T12:34:04;99703.16;;;18.02;37.14
76460;BME280;65299;46.084;18.762;2023-04-25T12:37:04;99699.81;;;17.84;38.26
76460;BME280;65299;46.084;18.762;2023-04-25T12:40:06;99700.19;;;17.74;39.36
76460;BME280;65299;46.084;18.762;2023-04-25T12:43:06;99710.22;;;17.48;40.76
76460;BME280;65299;46.084;18.762;2023-04-25T12:46:07;99703.81;;;17.40;38.96
76460;BME280;65299;46.084;18.762;2023-04-25T12:49:08;99708.16;;;17.07;40.83
76460;BME280;65299;46.084;18.762;2023-04-25T12:52:08;99699.50;;;17.48;39.60
76460;BME280;65299;46.084;18.762;2023-04-25T12:55:09;99702.81;;;18.12;39.42
76460;BME280;65299;46.084;18.762;2023-04-25T12:58:09;99685.75;;;17.87;37.37
76460;BME280;65299;46.084;18.762;2023-04-25T13:01:10;99684.22;;;17.40;38.31
76460;BME280;65299;46.084;18.762;2023-04-25T13:04:12;99692.22;;;17.57;39.37
76460;BME280;65299;46.084;18.762;2023-04-25T13:07:12;99689.19;;;17.12;39.33
76460;BME280;65299;46.084;18.762;2023-04-25T13:10:13;99683.00;;;17.75;39.43
76460;BME280;65299;46.084;18.762;2023-04-25T13:13:13;99684.66;;;18.30;37.79
76460;BME280;65299;46.084;18.762;2023-04-25T13:16:14;99679.88;;;18.14;37.81
76460;BME280;65299;46.084;18.762;2023-04-25T13:19:14;99686.50;;;18.38;35.65
76460;BME280;65299;46.084;18.762;2023-04-25T13:22:15;99684.41;;;18.64;36.60
76460;BME280;65299;46.084;18.762;2023-04-25T13:25:16;99674.78;;;18.63;34.73
76460;BME280;65299;46.084;18.762;2023-04-25T13:28:18;99661.91;;;19.13;35.45
76460;BME280;65299;46.084;18.762;2023-04-25T13:31:18;99667.47;;;18.96;35.66
76460;BME280;65299;46.084;18.762;2023-04-25T13:34:19;99664.66;;;18.39;36.46
76460;BME280;65299;46.084;18.762;2023-04-25T13:37:19;99665.19;;;18.86;36.56
76460;BME280;65299;46.084;18.762;2023-04-25T13:40:20;99676.22;;;18.93;36.73
76460;BME280;65299;46.084;18.762;2023-04-25T13:43:21;99657.56;;;18.76;32.76
76460;BME280;65299;46.084;18.762;2023-04-25T13:46:24;99648.91;;;18.70;33.98
76460;BME280;65299;46.084;18.762;2023-04-25T13:49:25;99662.47;;;19.31;34.58
76460;BME280;65299;46.084;18.762;2023-04-25T13:52:25;99649.13;;;19.22;33.40
76460;BME280;65299;46.084;18.762;2023-04-25T13:55:26;99640.38;;;19.01;33.53
76460;BME280;65299;46.084;18.762;2023-04-25T13:58:26;99650.16;;;18.73;33.54
76460;BME280;65299;46.084;18.762;2023-04-25T14:01:27;99643.50;;;19.03;32.68
76460;BME280;65299;46.084;18.762;2023-04-25T14:04:28;99648.50;;;19.37;32.87
76460;BME280;65299;46.084;18.762;2023-04-25T14:07:28;99646.78;;;19.33;32.72
76460;BME280;65299;46.084;18.762;2023-04-25T14:10:29;99645.81;;;19.49;33.25
76460;BME280;65299;46.084;18.762;2023-04-25T14:13:29;99642.38;;;19.16;34.76
76460;BME280;65299;46.084;18.762;2023-04-25T14:16:30;99647.31;;;19.14;34.37
76460;BME280;65299;46.084;18.762;2023-04-25T14:19:31;99636.13;;;19.24;34.49
76460;BME280;65299;46.084;18.762;2023-04-25T14:22:32;99633.13;;;19.74;34.23
76460;BME280;65299;46.084;18.762;2023-04-25T14:25:32;99630.41;;;19.86;33.15
76460;BME280;65299;46.084;18.762;2023-04-25T14:28:32;99630.78;;;19.60;31.54
76460;BME280;65299;46.084;18.762;2023-04-25T14:31:33;99623.00;;;19.83;32.88
76460;BME280;65299;46.084;18.762;2023-04-25T14:34:33;99624.50;;;19.68;31.30
76460;BME280;65299;46.084;18.762;2023-04-25T14:37:34;99629.66;;;19.49;32.53
76460;BME280;65299;46.084;18.762;2023-04-25T14:40:34;99632.16;;;19.42;32.19
76460;BME280;65299;46.084;18.762;2023-04-25T14:43:35;99634.53;;;18.99;32.89
76460;BME280;65299;46.084;18.762;2023-04-25T14:46:36;99633.63;;;18.83;32.92
76460;BME280;65299;46.084;18.762;2023-04-25T14:49:37;99616.88;;;19.46;32.65
76460;BME280;65299;46.084;18.762;2023-04-25T14:52:37;99621.81;;;19.32;31.99
76460;BME280;65299;46.084;18.762;2023-04-25T14:55:38;99624.13;;;18.32;31.77
76460;BME280;65299;46.084;18.762;2023-04-25T14:58:39;99640.34;;;18.89;33.46
76460;BME280;65299;46.084;18.762;2023-04-25T15:01:40;99631.84;;;18.54;33.69
76460;BME280;65299;46.084;18.762;2023-04-25T15:04:41;99625.69;;;20.94;30.76
76460;BME280;65299;46.084;18.762;2023-04-25T15:07:42;99634.72;;;22.33;29.26
76460;BME280;65299;46.084;18.762;2023-04-25T15:10:42;99631.03;;;22.41;29.15
76460;BME280;65299;46.084;18.762;2023-04-25T15:13:43;99627.81;;;22.96;28.18
76460;BME280;65299;46.084;18.762;2023-04-25T15:16:43;99632.78;;;22.72;29.16
76460;BME280;65299;46.084;18.762;2023-04-25T15:19:44;99633.16;;;22.51;29.23
76460;BME280;65299;46.084;18.762;2023-04-25T15:22:44;99631.50;;;21.23;30.93
76460;BME280;65299;46.084;18.762;2023-04-25T15:25:46;99628.81;;;19.97;32.79
76460;BME280;65299;46.084;18.762;2023-04-25T15:28:47;99626.94;;;19.25;29.55
76460;BME280;65299;46.084;18.762;2023-04-25T15:31:48;99622.78;;;19.03;30.49
76460;BME280;65299;46.084;18.762;2023-04-25T15:34:49;99624.97;;;18.45;32.67
76460;BME280;65299;46.084;18.762;2023-04-25T15:37:50;99622.88;;;18.83;31.93
76460;BME280;65299;46.084;18.762;2023-04-25T15:40:51;99624.03;;;18.61;32.18
76460;BME280;65299;46.084;18.762;2023-04-25T15:43:52;99628.03;;;18.35;34.00
76460;BME280;65299;46.084;18.762;2023-04-25T15:46:53;99628.25;;;18.50;34.29